createdAt,value
2022-08-25T00:01:57.128Z,7.45
2022-08-25T00:04:24.609Z,7.18
2022-08-25T00:06:53.055Z,6.72
2022-08-25T00:09:21.878Z,7.88
2022-08-25T00:11:49.760Z,7.55
2022-08-25T00:14:19.142Z,6.88
2022-08-25T00:16:46.737Z,6.30
2022-08-25T00:19:15.764Z,8.32
2022-08-25T00:21:44.007Z,7.53
2022-08-25T00:24:12.260Z,6.22
2022-08-25T00:26:40.752Z,5.95
2022-08-25T00:29:08.060Z,5.65
2022-08-25T00:31:38.678Z,5.85
2022-08-25T00:34:08.360Z,6.85
2022-08-25T00:36:35.634Z,6.43
2022-08-25T00:39:02.738Z,6.45
2022-08-25T00:41:29.957Z,6.15
2022-08-25T00:43:58.390Z,6.35
2022-08-25T00:46:27.785Z,5.95
2022-08-25T00:48:58.126Z,6.63
2022-08-25T00:51:47.227Z,6.20
2022-08-25T00:54:17.401Z,6.23
2022-08-25T00:56:45.314Z,5.93
2022-08-25T00:59:13.396Z,6.00
2022-08-25T01:01:40.898Z,5.78
2022-08-25T01:04:08.105Z,5.57
2022-08-25T01:06:37.266Z,6.57
2022-08-25T01:09:05.068Z,6.00
2022-08-25T01:11:32.203Z,6.00
2022-08-25T01:14:03.231Z,5.88
2022-08-25T01:16:30.467Z,5.68
2022-08-25T01:19:00.527Z,7.45
2022-08-25T01:23:55.914Z,6.00
2022-08-25T01:26:30.402Z,5.57
2022-08-25T01:29:18.035Z,5.13
2022-08-25T01:31:45.272Z,5.95
2022-08-25T01:34:12.510Z,5.35
2022-08-25T01:36:40.251Z,5.90
2022-08-25T01:39:08.644Z,5.45
2022-08-25T01:41:36.542Z,6.43
2022-08-25T01:44:12.411Z,6.00
2022-08-25T01:46:44.262Z,5.90
2022-08-25T01:49:11.395Z,6.57
2022-08-25T01:51:40.506Z,5.20
2022-08-25T01:54:07.622Z,4.87
2022-08-25T01:56:35.902Z,5.80
2022-08-25T01:59:03.051Z,6.18
2022-08-25T02:01:30.671Z,5.65
2022-08-25T02:03:58.693Z,5.70
2022-08-25T02:06:29.900Z,5.70
2022-08-25T02:08:58.523Z,5.65
2022-08-25T02:11:26.166Z,5.78
2022-08-25T02:13:53.416Z,6.03
2022-08-25T02:16:23.726Z,5.53
2022-08-25T02:18:50.958Z,6.68
2022-08-25T02:21:18.359Z,6.68
2022-08-25T02:23:45.508Z,5.70
2022-08-25T02:26:16.707Z,6.90
2022-08-25T02:28:44.682Z,6.68
2022-08-25T02:31:11.848Z,5.78
2022-08-25T02:33:39.248Z,6.20
2022-08-25T02:36:07.534Z,6.60
2022-08-25T02:38:34.799Z,6.78
2022-08-25T02:41:02.788Z,6.03
2022-08-25T02:43:29.912Z,6.82
2022-08-25T02:45:57.109Z,7.13
2022-08-25T02:48:24.476Z,6.40
2022-08-25T02:50:52.588Z,6.50
2022-08-25T02:53:20.732Z,6.50
2022-08-25T02:55:48.237Z,6.50
2022-08-25T02:58:15.943Z,6.80
2022-08-25T03:00:43.196Z,6.68
2022-08-25T03:03:10.387Z,6.85
2022-08-25T03:05:37.504Z,6.82
2022-08-25T03:08:05.891Z,6.95
2022-08-25T03:10:33.618Z,7.03
2022-08-25T03:13:00.811Z,7.00
2022-08-25T03:15:27.948Z,6.38
2022-08-25T03:17:58.671Z,7.93
2022-08-25T03:20:27.915Z,7.25
2022-08-25T03:22:55.097Z,6.47
2022-08-25T03:25:41.051Z,6.18
2022-08-25T03:28:08.212Z,8.05
2022-08-25T03:30:35.352Z,7.22
2022-08-25T03:33:02.530Z,6.93
2022-08-25T03:35:30.107Z,6.15
2022-08-25T03:37:58.656Z,8.40
2022-08-25T03:40:26.363Z,6.60
2022-08-25T03:42:55.343Z,7.72
2022-08-25T03:45:22.711Z,8.15
2022-08-25T03:47:50.455Z,6.50
2022-08-25T03:50:18.204Z,6.85
2022-08-25T03:52:46.883Z,7.07
2022-08-25T03:55:14.874Z,8.30
2022-08-25T03:57:42.238Z,6.95
2022-08-25T04:00:10.454Z,6.68
2022-08-25T04:02:37.581Z,6.78
2022-08-25T04:05:04.935Z,7.28
2022-08-25T04:07:32.254Z,8.13
2022-08-25T04:09:59.403Z,6.97
2022-08-25T04:12:26.515Z,7.03
2022-08-25T04:14:53.986Z,6.70
2022-08-25T04:17:21.216Z,7.65
2022-08-25T04:19:48.898Z,6.82
2022-08-25T04:22:16.048Z,7.20
2022-08-25T04:24:43.185Z,6.57
2022-08-25T04:27:10.475Z,7.10
2022-08-25T04:29:37.624Z,8.13
2022-08-25T04:32:04.875Z,8.50
2022-08-25T04:34:32.014Z,7.25
2022-08-25T04:37:00.758Z,7.68
2022-08-25T04:39:27.881Z,8.27
2022-08-25T04:41:55.323Z,8.07
2022-08-25T04:44:22.497Z,7.68
2022-08-25T04:46:50.011Z,7.15
2022-08-25T04:49:17.914Z,7.85
2022-08-25T04:51:45.060Z,8.27
2022-08-25T04:54:13.795Z,7.32
2022-08-25T04:56:41.880Z,8.25
2022-08-25T04:59:11.806Z,7.97
2022-08-25T05:01:39.457Z,7.75
2022-08-25T05:04:08.336Z,7.70
2022-08-25T05:06:42.058Z,7.57
2022-08-25T05:09:09.858Z,8.02
2022-08-25T05:11:37.468Z,7.63
2022-08-25T05:14:05.009Z,7.28
2022-08-25T05:16:32.372Z,8.20
2022-08-25T05:18:59.567Z,8.73
2022-08-25T05:21:27.820Z,7.00
2022-08-25T05:23:58.287Z,7.50
2022-08-25T05:26:26.486Z,8.70
2022-08-25T05:28:55.641Z,8.25
2022-08-25T05:31:24.078Z,8.38
2022-08-25T05:33:52.022Z,8.07
2022-08-25T05:36:20.137Z,8.20
2022-08-25T05:38:47.648Z,8.60
2022-08-25T05:41:17.489Z,8.02
2022-08-25T05:43:45.767Z,6.75
2022-08-25T05:46:13.366Z,9.07
2022-08-25T05:48:40.706Z,8.75
2022-08-25T05:51:10.087Z,9.43
2022-08-25T05:53:39.200Z,7.97
2022-08-25T05:56:06.429Z,8.75
2022-08-25T05:58:33.652Z,9.27
2022-08-25T06:01:19.679Z,7.95
2022-08-25T06:03:47.827Z,7.68
2022-08-25T06:06:16.300Z,7.75
2022-08-25T06:08:44.475Z,8.10
2022-08-25T06:11:12.636Z,8.55
2022-08-25T06:13:40.141Z,8.40
2022-08-25T06:16:07.867Z,7.70
2022-08-25T06:18:35.079Z,8.85
2022-08-25T06:21:08.417Z,7.70
2022-08-25T06:23:35.517Z,9.43
2022-08-25T06:26:03.166Z,8.05
2022-08-25T06:28:30.280Z,10.60
2022-08-25T06:31:01.410Z,7.60
2022-08-25T06:33:28.751Z,7.93
2022-08-25T06:35:56.378Z,8.25
2022-08-25T06:38:23.627Z,8.60
2022-08-25T06:40:52.048Z,7.22
2022-08-25T06:43:22.374Z,8.20
2022-08-25T06:45:49.648Z,8.20
2022-08-25T06:48:17.000Z,8.10
2022-08-25T06:50:44.748Z,7.65
2022-08-25T06:53:12.918Z,8.45
2022-08-25T06:55:40.023Z,9.07
2022-08-25T06:58:10.258Z,9.45
2022-08-25T07:00:38.658Z,8.45
2022-08-25T07:03:07.088Z,8.77
2022-08-25T07:05:43.560Z,8.60
2022-08-25T07:08:11.949Z,7.78
2022-08-25T07:10:39.303Z,8.63
2022-08-25T07:13:06.448Z,8.68
2022-08-25T07:15:33.540Z,9.15
2022-08-25T07:18:00.662Z,8.73
2022-08-25T07:20:29.255Z,8.85
2022-08-25T07:25:24.967Z,8.00
2022-08-25T07:27:55.802Z,8.55
2022-08-25T07:30:25.724Z,8.77
2022-08-25T07:33:06.374Z,8.18
2022-08-25T07:35:37.445Z,7.90
2022-08-25T07:38:06.640Z,8.15
2022-08-25T07:40:42.575Z,7.45
2022-08-25T07:43:10.327Z,7.78
2022-08-25T07:45:43.880Z,6.85
2022-08-25T07:48:18.350Z,7.05
2022-08-25T07:50:46.842Z,6.30
2022-08-25T07:53:14.797Z,7.78
2022-08-25T07:55:42.413Z,7.88
2022-08-25T07:58:12.574Z,8.32
2022-08-25T08:00:40.784Z,6.80
2022-08-25T08:05:43.315Z,7.47
2022-08-25T08:08:11.909Z,7.13
2022-08-25T08:11:02.909Z,7.53
2022-08-25T08:13:30.128Z,6.63
2022-08-25T08:15:57.359Z,6.88
2022-08-25T08:18:24.585Z,7.55
2022-08-25T08:20:52.115Z,6.72
2022-08-25T08:23:19.283Z,7.30
2022-08-25T08:25:46.499Z,7.45
2022-08-25T08:28:13.580Z,6.88
2022-08-25T08:30:53.728Z,6.75
2022-08-25T08:33:21.555Z,7.57
2022-08-25T08:35:48.760Z,7.40
2022-08-25T08:38:22.220Z,7.15
2022-08-25T08:41:36.720Z,6.55
2022-08-25T08:44:07.492Z,7.13
2022-08-25T08:46:46.499Z,6.45
2022-08-25T08:49:23.011Z,6.78
2022-08-25T08:51:58.197Z,6.20
2022-08-25T08:54:26.556Z,6.70
2022-08-25T08:56:59.216Z,7.13
2022-08-25T08:59:30.862Z,7.15
2022-08-25T09:02:00.791Z,7.13
2022-08-25T09:04:49.483Z,6.68
2022-08-25T09:07:20.737Z,6.57
2022-08-25T09:09:48.457Z,6.13
2022-08-25T09:12:27.852Z,6.93
2022-08-25T09:15:00.667Z,6.82
2022-08-25T09:17:54.822Z,6.93
2022-08-25T09:20:28.105Z,4.95
2022-08-25T09:23:03.806Z,4.53
2022-08-25T09:25:53.215Z,4.78
2022-08-25T09:28:22.630Z,4.70
2022-08-25T09:30:49.790Z,3.95
2022-08-25T09:33:21.154Z,4.38
2022-08-25T09:35:50.035Z,4.15
2022-08-25T09:38:20.664Z,4.43
2022-08-25T09:40:49.310Z,5.78
2022-08-25T09:43:25.840Z,3.47
2022-08-25T09:46:11.413Z,3.33
2022-08-25T09:48:56.390Z,3.90
2022-08-25T09:51:42.324Z,3.85
2022-08-25T09:54:13.509Z,3.22
2022-08-25T09:56:51.239Z,3.35
2022-08-25T09:59:21.326Z,3.75
2022-08-25T10:02:04.118Z,4.05
2022-08-25T10:07:03.024Z,4.00
2022-08-25T10:09:41.910Z,4.78
2022-08-25T10:12:17.676Z,4.70
2022-08-25T10:14:48.980Z,5.07
2022-08-25T10:17:27.777Z,4.40
2022-08-25T10:20:15.263Z,5.10
2022-08-25T10:22:43.279Z,4.80
2022-08-25T10:25:12.377Z,3.90
2022-08-25T10:27:39.486Z,4.28
2022-08-25T10:30:19.085Z,5.18
2022-08-25T10:33:04.784Z,5.17
2022-08-25T10:35:41.915Z,4.32
2022-08-25T10:38:09.038Z,3.55
2022-08-25T10:40:38.218Z,4.57
2022-08-25T10:43:17.547Z,4.30
2022-08-25T10:45:50.995Z,4.30
2022-08-25T10:48:22.480Z,4.22
2022-08-25T10:50:54.067Z,3.95
2022-08-25T10:53:27.195Z,4.38
2022-08-25T10:56:07.204Z,5.20
2022-08-25T10:58:46.904Z,4.60
2022-08-25T11:01:28.084Z,4.90
2022-08-25T11:03:59.751Z,4.60
2022-08-25T11:06:36.824Z,5.32
2022-08-25T11:09:06.400Z,4.10
2022-08-25T11:14:09.355Z,4.55
2022-08-25T11:16:48.397Z,3.72
2022-08-25T11:19:21.504Z,4.30
2022-08-25T11:22:01.267Z,3.80
2022-08-25T11:24:33.063Z,3.88
2022-08-25T11:27:05.614Z,4.90
2022-08-25T11:29:36.737Z,4.45
2022-08-25T11:32:04.447Z,3.90
2022-08-25T11:34:33.074Z,3.55
2022-08-25T11:37:07.786Z,3.70
2022-08-25T11:39:38.527Z,3.95
2022-08-25T11:42:23.861Z,3.92
2022-08-25T11:45:08.052Z,3.80
2022-08-25T11:47:38.526Z,3.80
2022-08-25T11:50:23.857Z,3.72
2022-08-25T11:52:58.292Z,3.55
2022-08-25T11:55:48.350Z,3.67
2022-08-25T11:58:15.516Z,3.80
2022-08-25T12:00:44.560Z,3.72
2022-08-25T12:03:31.366Z,4.22
2022-08-25T12:06:17.341Z,3.78
2022-08-25T12:08:52.163Z,3.92
2022-08-25T12:11:37.780Z,4.00
2022-08-25T12:14:16.367Z,3.90
2022-08-25T12:16:45.668Z,3.42
2022-08-25T12:19:31.140Z,3.70
2022-08-25T12:22:04.529Z,3.83
2022-08-25T12:24:37.475Z,3.67
2022-08-25T12:27:06.710Z,3.20
2022-08-25T12:29:49.767Z,3.60
2022-08-25T12:32:37.668Z,4.18
2022-08-25T12:35:13.812Z,4.25
2022-08-25T12:37:57.917Z,3.97
2022-08-25T12:40:39.387Z,3.63
2022-08-25T12:43:26.520Z,4.13
2022-08-25T12:45:55.530Z,4.43
2022-08-25T12:48:28.795Z,3.65
2022-08-25T12:50:58.698Z,4.10
2022-08-25T12:53:31.660Z,3.80
2022-08-25T12:56:02.272Z,3.85
2022-08-25T12:58:58.533Z,4.10
2022-08-25T13:01:37.833Z,4.38
2022-08-25T13:04:30.583Z,3.80
2022-08-25T13:07:09.873Z,4.07
2022-08-25T13:09:58.655Z,3.92
2022-08-25T13:12:31.294Z,4.30
2022-08-25T13:15:00.198Z,4.00
2022-08-25T13:17:29.139Z,3.38
2022-08-25T13:20:13.015Z,4.10
2022-08-25T13:22:40.452Z,3.47
2022-08-25T13:25:07.863Z,4.35
2022-08-25T13:27:37.193Z,3.58
2022-08-25T13:32:35.397Z,3.53
2022-08-25T13:35:14.207Z,3.45
2022-08-25T13:37:42.125Z,3.50
2022-08-25T13:40:10.586Z,3.90
2022-08-25T13:42:39.299Z,4.07
2022-08-25T13:45:14.455Z,4.40
2022-08-25T13:47:43.835Z,3.65
2022-08-25T13:50:28.421Z,3.70
2022-08-25T13:53:00.774Z,3.40
2022-08-25T13:55:38.296Z,3.65
2022-08-25T13:58:24.836Z,3.63
2022-08-25T14:01:23.114Z,4.00
2022-08-25T14:04:18.121Z,3.70
2022-08-25T14:06:45.337Z,3.20
2022-08-25T14:09:16.122Z,3.83
2022-08-25T14:11:48.480Z,4.28
2022-08-25T14:14:24.537Z,3.75
2022-08-25T14:16:57.417Z,3.25
2022-08-25T14:19:25.139Z,4.47
2022-08-25T14:21:56.737Z,3.30
2022-08-25T14:24:24.322Z,3.75
2022-08-25T14:26:53.993Z,4.20
2022-08-25T14:29:22.230Z,3.88
2022-08-25T14:31:49.928Z,4.10
2022-08-25T14:34:21.651Z,3.58
2022-08-25T14:36:49.128Z,3.97
2022-08-25T14:39:16.480Z,3.75
2022-08-25T14:41:47.502Z,3.92
2022-08-25T14:44:20.778Z,4.18
2022-08-25T14:46:52.588Z,4.05
2022-08-25T14:49:25.016Z,3.65
2022-08-25T14:51:52.428Z,4.18
2022-08-25T14:54:21.055Z,4.30
2022-08-25T14:56:49.333Z,4.07
2022-08-25T14:59:16.522Z,3.40
2022-08-25T15:01:43.847Z,3.50
2022-08-25T15:04:16.162Z,3.53
2022-08-25T15:06:45.160Z,3.67
2022-08-25T15:09:16.174Z,3.65
2022-08-25T15:11:45.587Z,3.83
2022-08-25T15:14:15.537Z,3.63
2022-08-25T15:16:47.684Z,3.90
2022-08-25T15:19:17.510Z,4.22
2022-08-25T15:21:45.619Z,3.88
2022-08-25T15:24:13.223Z,4.10
2022-08-25T15:26:55.195Z,4.32
2022-08-25T15:29:23.459Z,3.70
2022-08-25T15:31:50.843Z,4.00
2022-08-25T15:34:18.011Z,4.18
2022-08-25T15:36:45.882Z,4.63
2022-08-25T15:39:14.684Z,3.80
2022-08-25T15:41:42.729Z,3.40
2022-08-25T15:44:11.437Z,3.90
2022-08-25T15:46:41.426Z,3.60
2022-08-25T15:49:08.586Z,3.92
2022-08-25T15:51:36.133Z,4.20
2022-08-25T15:54:04.310Z,3.88
2022-08-25T15:56:31.645Z,4.45
2022-08-25T15:58:58.815Z,3.97
2022-08-25T16:01:27.893Z,4.00
2022-08-25T16:03:58.039Z,4.10
2022-08-25T16:06:25.790Z,4.15
2022-08-25T16:08:53.722Z,4.07
2022-08-25T16:11:25.735Z,4.60
2022-08-25T16:13:53.563Z,4.28
2022-08-25T16:16:21.823Z,4.35
2022-08-25T16:18:48.949Z,4.43
2022-08-25T16:21:19.760Z,4.22
2022-08-25T16:23:48.847Z,4.78
2022-08-25T16:26:16.965Z,5.72
2022-08-25T16:28:44.911Z,4.57
2022-08-25T16:31:13.297Z,4.50
2022-08-25T16:36:17.057Z,4.30
2022-08-25T16:38:49.135Z,4.72
2022-08-25T16:41:19.238Z,4.45
2022-08-25T16:43:47.247Z,3.67
2022-08-25T16:46:17.357Z,4.50
2022-08-25T16:48:44.730Z,4.50
2022-08-25T16:51:13.210Z,4.88
2022-08-25T16:54:00.702Z,5.43
2022-08-25T16:56:29.639Z,5.05
2022-08-25T16:58:58.186Z,5.15
2022-08-25T17:01:25.751Z,4.63
2022-08-25T17:03:56.116Z,4.45
2022-08-25T17:06:24.773Z,5.50
2022-08-25T17:08:52.651Z,4.53
2022-08-25T17:11:31.727Z,5.07
2022-08-25T17:14:00.050Z,5.75
2022-08-25T17:16:29.927Z,6.15
2022-08-25T17:18:59.597Z,6.38
2022-08-25T17:21:31.325Z,6.43
2022-08-25T17:23:58.840Z,6.40
2022-08-25T17:26:27.838Z,6.13
2022-08-25T17:28:56.362Z,5.75
2022-08-25T17:31:24.094Z,6.40
2022-08-25T17:33:52.403Z,6.13
2022-08-25T17:36:19.642Z,5.90
2022-08-25T17:38:46.827Z,6.63
2022-08-25T17:41:14.943Z,6.18
2022-08-25T17:43:43.599Z,6.35
2022-08-25T17:46:11.801Z,6.82
2022-08-25T17:48:43.886Z,6.50
2022-08-25T17:51:11.333Z,6.05
2022-08-25T17:53:38.615Z,7.10
2022-08-25T17:56:07.522Z,6.85
2022-08-25T17:58:34.992Z,6.40
2022-08-25T18:01:03.113Z,6.45
2022-08-25T18:03:30.850Z,6.78
2022-08-25T18:05:58.670Z,6.38
2022-08-25T18:08:32.352Z,6.85
2022-08-25T18:11:02.554Z,7.03
2022-08-25T18:13:31.478Z,6.78
2022-08-25T18:15:58.868Z,6.68
2022-08-25T18:18:26.054Z,7.07
2022-08-25T18:20:53.206Z,6.63
2022-08-25T18:23:20.496Z,6.50
2022-08-25T18:25:49.442Z,6.88
2022-08-25T18:28:16.795Z,7.80
2022-08-25T18:30:44.633Z,8.43
2022-08-25T18:33:12.020Z,14.13
2022-08-25T18:35:40.676Z,23.75
2022-08-25T18:38:28.890Z,24.27
2022-08-25T18:40:57.787Z,20.70
2022-08-25T18:43:27.579Z,17.27
2022-08-25T18:45:56.853Z,19.25
2022-08-25T18:48:26.754Z,20.63
2022-08-25T18:50:54.884Z,16.98
2022-08-25T18:53:30.439Z,14.45
2022-08-25T18:56:05.109Z,14.45
2022-08-25T18:58:32.664Z,13.15
2022-08-25T19:01:01.366Z,10.93
2022-08-25T19:03:29.661Z,8.90
2022-08-25T19:05:57.918Z,9.90
2022-08-25T19:08:28.930Z,8.88
2022-08-25T19:10:57.371Z,8.32
2022-08-25T19:13:25.444Z,8.77
2022-08-25T19:15:52.890Z,10.05
2022-08-25T19:18:26.036Z,12.35
2022-08-25T19:20:56.402Z,11.82
2022-08-25T19:23:23.638Z,12.85
2022-08-25T19:25:50.854Z,13.45
2022-08-25T19:28:19.238Z,13.25
2022-08-25T19:30:50.541Z,12.45
2022-08-25T19:33:42.636Z,12.50
2022-08-25T19:36:08.521Z,12.18
2022-08-25T19:38:36.193Z,11.63
2022-08-25T19:41:09.447Z,11.73
2022-08-25T19:43:50.598Z,12.13
2022-08-25T19:46:24.634Z,10.75
2022-08-25T19:48:51.915Z,10.85
2022-08-25T19:51:21.816Z,11.68
2022-08-25T19:53:54.812Z,11.18
2022-08-25T19:56:23.928Z,10.00
2022-08-25T19:58:51.291Z,10.65
2022-08-25T20:01:19.036Z,9.90
2022-08-25T20:03:46.970Z,9.75
2022-08-25T20:06:16.223Z,10.40
2022-08-25T20:08:44.242Z,9.50
2022-08-25T20:11:11.618Z,9.60
2022-08-25T20:13:38.973Z,10.13
2022-08-25T20:16:06.400Z,9.75
2022-08-25T20:18:33.673Z,10.10
2022-08-25T20:21:02.586Z,10.40
2022-08-25T20:23:48.615Z,9.25
2022-08-25T20:26:15.844Z,9.23
2022-08-25T20:28:43.278Z,9.63
2022-08-25T20:31:11.162Z,10.15
2022-08-25T20:33:39.578Z,10.20
2022-08-25T20:36:07.471Z,10.43
2022-08-25T20:38:35.376Z,9.57
2022-08-25T20:41:02.986Z,9.73
2022-08-25T20:43:30.282Z,9.82
2022-08-25T20:46:01.318Z,10.02
2022-08-25T20:48:28.924Z,10.50
2022-08-25T20:50:57.779Z,9.40
2022-08-25T20:53:25.756Z,8.97
2022-08-25T20:55:55.101Z,9.05
2022-08-25T20:58:22.310Z,9.10
2022-08-25T21:00:50.889Z,9.10
2022-08-25T21:03:20.189Z,9.43
2022-08-25T21:05:47.328Z,8.82
2022-08-25T21:08:14.545Z,8.73
2022-08-25T21:10:42.080Z,7.90
2022-08-25T21:13:09.229Z,7.13
2022-08-25T21:15:40.023Z,6.60
2022-08-25T21:18:07.372Z,6.07
2022-08-25T21:20:35.815Z,6.90
2022-08-25T21:23:02.964Z,6.57
2022-08-25T21:25:30.223Z,6.45
2022-08-25T21:27:57.630Z,6.07
2022-08-25T21:30:24.808Z,6.30
2022-08-25T21:32:53.483Z,5.80
2022-08-25T21:35:21.238Z,5.47
2022-08-25T21:37:53.451Z,5.88
2022-08-25T21:40:21.434Z,4.97
2022-08-25T21:42:49.284Z,5.40
2022-08-25T21:45:16.971Z,5.22
2022-08-25T21:47:48.207Z,5.40
2022-08-25T21:50:15.355Z,5.18
2022-08-25T21:52:42.565Z,4.80
2022-08-25T21:55:15.791Z,4.90
2022-08-25T21:57:43.799Z,5.53
2022-08-25T22:00:11.956Z,5.20
2022-08-25T22:02:39.219Z,5.40
2022-08-25T22:05:09.376Z,5.47
2022-08-25T22:07:41.621Z,5.32
2022-08-25T22:10:16.686Z,5.70
2022-08-25T22:12:45.080Z,5.13
2022-08-25T22:15:13.893Z,5.80
2022-08-25T22:17:41.194Z,5.30
2022-08-25T22:20:09.389Z,5.50
2022-08-25T22:22:36.540Z,6.18
2022-08-25T22:25:03.897Z,4.88
2022-08-25T22:27:32.926Z,5.70
2022-08-25T22:30:01.057Z,5.55
2022-08-25T22:32:28.219Z,5.13
2022-08-25T22:34:55.389Z,5.10
2022-08-25T22:37:22.853Z,5.40
2022-08-25T22:39:51.364Z,5.28
2022-08-25T22:42:20.142Z,5.45
2022-08-25T22:44:53.959Z,5.40
2022-08-25T22:47:21.551Z,4.88
2022-08-25T22:49:48.751Z,5.30
2022-08-25T22:52:17.321Z,5.10
2022-08-25T22:54:44.503Z,5.25
2022-08-25T22:57:12.318Z,5.75
2022-08-25T22:59:39.813Z,5.20
2022-08-25T23:02:07.016Z,5.05
2022-08-25T23:04:37.192Z,5.25
2022-08-25T23:07:08.835Z,4.75
2022-08-25T23:09:37.223Z,5.00
2022-08-25T23:12:04.799Z,5.43
2022-08-25T23:14:36.593Z,5.05
2022-08-25T23:17:07.366Z,4.88
2022-08-25T23:19:35.329Z,5.18
2022-08-25T23:22:13.835Z,5.00
2022-08-25T23:24:45.926Z,4.60
2022-08-25T23:27:14.417Z,4.88
2022-08-25T23:29:43.724Z,4.47
2022-08-25T23:32:14.037Z,4.90
2022-08-25T23:34:42.993Z,4.45
2022-08-25T23:37:15.052Z,5.00
2022-08-25T23:39:45.417Z,3.92
2022-08-25T23:42:12.576Z,5.13
2022-08-25T23:44:40.835Z,4.85
2022-08-25T23:47:07.998Z,4.63
2022-08-25T23:49:40.240Z,4.63
2022-08-25T23:52:07.461Z,4.88
2022-08-25T23:54:34.567Z,4.95
2022-08-25T23:57:02.299Z,5.22
2022-08-25T23:59:29.606Z,4.72
